sensor_id;sensor_type;location;lat;lon;timestamp;P1;durP1;ratioP1;P2;durP2;ratioP2
11761;SDS011;5938;47.098;15.474;2024-03-06T00:01:47;43.50;;;10.70;;
11761;SDS011;5938;47.098;15.474;2024-03-06T00:05:51;38.60;;;9.20;;
11761;SDS011;5938;47.098;15.474;2024-03-06T00:09:55;44.97;;;9.90;;
11761;SDS011;5938;47.098;15.474;2024-03-06T00:13:58;41.60;;;11.07;;
11761;SDS011;5938;47.098;15.474;2024-03-06T00:18:02;40.70;;;9.90;;
11761;SDS011;5938;47.098;15.474;2024-03-06T00:22:08;40.07;;;8.93;;
11761;SDS011;5938;47.098;15.474;2024-03-06T00:26:12;44.43;;;11.33;;
11761;SDS011;5938;47.098;15.474;2024-03-06T00:30:15;43.77;;;10.57;;
11761;SDS011;5938;47.098;15.474;2024-03-06T00:34:19;43.67;;;9.23;;
11761;SDS011;5938;47.098;15.474;2024-03-06T00:38:24;40.97;;;10.30;;
11761;SDS011;5938;47.098;15.474;2024-03-06T00:42:27;46.67;;;13.30;;
11761;SDS011;5938;47.098;15.474;2024-03-06T00:46:31;42.17;;;10.80;;
11761;SDS011;5938;47.098;15.474;2024-03-06T00:50:34;49.07;;;11.57;;
11761;SDS011;5938;47.098;15.474;2024-03-06T00:54:39;46.20;;;12.03;;
11761;SDS011;5938;47.098;15.474;2024-03-06T00:58:43;43.70;;;12.27;;
11761;SDS011;5938;47.098;15.474;2024-03-06T01:02:46;41.47;;;10.07;;
11761;SDS011;5938;47.098;15.474;2024-03-06T01:06:49;46.93;;;11.70;;
11761;SDS011;5938;47.098;15.474;2024-03-06T01:10:54;41.13;;;11.40;;
11761;SDS011;5938;47.098;15.474;2024-03-06T01:14:58;41.83;;;11.70;;
11761;SDS011;5938;47.098;15.474;2024-03-06T01:19:01;42.90;;;12.17;;
11761;SDS011;5938;47.098;15.474;2024-03-06T01:23:05;41.50;;;11.40;;
11761;SDS011;5938;47.098;15.474;2024-03-06T01:27:10;44.17;;;11.60;;
11761;SDS011;5938;47.098;15.474;2024-03-06T01:31:13;43.27;;;11.90;;
11761;SDS011;5938;47.098;15.474;2024-03-06T01:35:18;42.33;;;11.53;;
11761;SDS011;5938;47.098;15.474;2024-03-06T01:39:21;40.37;;;10.50;;
11761;SDS011;5938;47.098;15.474;2024-03-06T01:43:26;41.00;;;10.40;;
11761;SDS011;5938;47.098;15.474;2024-03-06T01:47:30;61.20;;;19.50;;
11761;SDS011;5938;47.098;15.474;2024-03-06T01:51:33;58.27;;;17.97;;
11761;SDS011;5938;47.098;15.474;2024-03-06T01:55:37;67.37;;;19.07;;
11761;SDS011;5938;47.098;15.474;2024-03-06T01:59:42;57.90;;;15.27;;
11761;SDS011;5938;47.098;15.474;2024-03-06T02:03:46;57.67;;;15.67;;
11761;SDS011;5938;47.098;15.474;2024-03-06T02:07:50;49.10;;;13.87;;
11761;SDS011;5938;47.098;15.474;2024-03-06T02:11:56;47.50;;;12.53;;
11761;SDS011;5938;47.098;15.474;2024-03-06T02:16:00;45.43;;;10.37;;
11761;SDS011;5938;47.098;15.474;2024-03-06T02:20:04;44.20;;;11.60;;
11761;SDS011;5938;47.098;15.474;2024-03-06T02:24:15;46.53;;;11.83;;
11761;SDS011;5938;47.098;15.474;2024-03-06T02:28:18;43.10;;;10.47;;
11761;SDS011;5938;47.098;15.474;2024-03-06T02:32:22;41.97;;;11.43;;
11761;SDS011;5938;47.098;15.474;2024-03-06T02:36:26;42.27;;;11.37;;
11761;SDS011;5938;47.098;15.474;2024-03-06T02:40:31;48.73;;;13.33;;
11761;SDS011;5938;47.098;15.474;2024-03-06T02:44:35;45.67;;;10.10;;
11761;SDS011;5938;47.098;15.474;2024-03-06T02:48:38;47.33;;;11.53;;
11761;SDS011;5938;47.098;15.474;2024-03-06T02:52:42;45.00;;;12.40;;
11761;SDS011;5938;47.098;15.474;2024-03-06T02:56:46;43.97;;;12.10;;
11761;SDS011;5938;47.098;15.474;2024-03-06T03:00:50;46.73;;;12.03;;
11761;SDS011;5938;47.098;15.474;2024-03-06T03:04:53;44.40;;;11.37;;
11761;SDS011;5938;47.098;15.474;2024-03-06T03:08:56;46.43;;;11.40;;
11761;SDS011;5938;47.098;15.474;2024-03-06T03:13:01;44.63;;;11.37;;
11761;SDS011;5938;47.098;15.474;2024-03-06T03:17:06;42.73;;;11.40;;
11761;SDS011;5938;47.098;15.474;2024-03-06T03:21:10;42.27;;;10.10;;
11761;SDS011;5938;47.098;15.474;2024-03-06T03:25:14;44.03;;;11.50;;
11761;SDS011;5938;47.098;15.474;2024-03-06T03:29:19;48.47;;;12.87;;
11761;SDS011;5938;47.098;15.474;2024-03-06T03:33:23;49.33;;;13.50;;
11761;SDS011;5938;47.098;15.474;2024-03-06T03:37:26;46.00;;;13.17;;
11761;SDS011;5938;47.098;15.474;2024-03-06T03:41:30;47.23;;;13.47;;
11761;SDS011;5938;47.098;15.474;2024-03-06T03:45:35;45.17;;;11.63;;
11761;SDS011;5938;47.098;15.474;2024-03-06T03:49:38;45.20;;;13.13;;
11761;SDS011;5938;47.098;15.474;2024-03-06T03:53:42;49.53;;;14.30;;
11761;SDS011;5938;47.098;15.474;2024-03-06T03:57:45;46.13;;;13.90;;
11761;SDS011;5938;47.098;15.474;2024-03-06T04:01:50;44.40;;;13.00;;
11761;SDS011;5938;47.098;15.474;2024-03-06T04:05:53;45.67;;;13.93;;
11761;SDS011;5938;47.098;15.474;2024-03-06T04:09:56;50.27;;;13.80;;
11761;SDS011;5938;47.098;15.474;2024-03-06T04:14:00;49.20;;;13.53;;
11761;SDS011;5938;47.098;15.474;2024-03-06T04:18:05;48.07;;;13.87;;
11761;SDS011;5938;47.098;15.474;2024-03-06T04:22:08;50.27;;;15.43;;
11761;SDS011;5938;47.098;15.474;2024-03-06T04:26:11;45.67;;;13.50;;
11761;SDS011;5938;47.098;15.474;2024-03-06T04:30:16;44.97;;;12.03;;
11761;SDS011;5938;47.098;15.474;2024-03-06T04:34:20;48.13;;;12.20;;
11761;SDS011;5938;47.098;15.474;2024-03-06T04:38:25;49.03;;;13.80;;
11761;SDS011;5938;47.098;15.474;2024-03-06T04:42:28;43.83;;;12.13;;
11761;SDS011;5938;47.098;15.474;2024-03-06T04:46:31;46.23;;;13.27;;
11761;SDS011;5938;47.098;15.474;2024-03-06T04:50:36;47.37;;;15.07;;
11761;SDS011;5938;47.098;15.474;2024-03-06T04:54:39;48.93;;;16.17;;
11761;SDS011;5938;47.098;15.474;2024-03-06T04:58:42;48.37;;;15.43;;
11761;SDS011;5938;47.098;15.474;2024-03-06T05:02:46;44.47;;;14.10;;
11761;SDS011;5938;47.098;15.474;2024-03-06T05:07:09;50.13;;;17.40;;
11761;SDS011;5938;47.098;15.474;2024-03-06T05:11:30;48.90;;;15.03;;
11761;SDS011;5938;47.098;15.474;2024-03-06T05:15:51;53.00;;;16.87;;
11761;SDS011;5938;47.098;15.474;2024-03-06T05:20:13;55.40;;;16.70;;
11761;SDS011;5938;47.098;15.474;2024-03-06T05:24:37;51.60;;;16.23;;
11761;SDS011;5938;47.098;15.474;2024-03-06T05:28:57;53.07;;;16.60;;
11761;SDS011;5938;47.098;15.474;2024-03-06T05:33:18;52.37;;;17.30;;
11761;SDS011;5938;47.098;15.474;2024-03-06T05:37:41;55.63;;;17.40;;
11761;SDS011;5938;47.098;15.474;2024-03-06T05:42:05;50.50;;;15.27;;
11761;SDS011;5938;47.098;15.474;2024-03-06T05:46:26;49.30;;;16.37;;
11761;SDS011;5938;47.098;15.474;2024-03-06T05:50:46;49.80;;;16.70;;
11761;SDS011;5938;47.098;15.474;2024-03-06T05:55:07;52.13;;;16.23;;
11761;SDS011;5938;47.098;15.474;2024-03-06T05:59:29;45.90;;;14.70;;
11761;SDS011;5938;47.098;15.474;2024-03-06T06:03:33;55.80;;;18.40;;
11761;SDS011;5938;47.098;15.474;2024-03-06T06:07:36;49.60;;;15.47;;
11761;SDS011;5938;47.098;15.474;2024-03-06T06:11:40;53.40;;;17.03;;
11761;SDS011;5938;47.098;15.474;2024-03-06T06:15:45;50.93;;;17.00;;
11761;SDS011;5938;47.098;15.474;2024-03-06T06:19:48;50.73;;;17.23;;
11761;SDS011;5938;47.098;15.474;2024-03-06T06:23:52;49.07;;;16.73;;
11761;SDS011;5938;47.098;15.474;2024-03-06T06:27:56;56.23;;;18.00;;
11761;SDS011;5938;47.098;15.474;2024-03-06T06:32:02;50.63;;;17.00;;
11761;SDS011;5938;47.098;15.474;2024-03-06T06:36:06;56.07;;;18.60;;
11761;SDS011;5938;47.098;15.474;2024-03-06T06:40:10;52.53;;;18.03;;
11761;SDS011;5938;47.098;15.474;2024-03-06T06:44:15;47.73;;;17.00;;
11761;SDS011;5938;47.098;15.474;2024-03-06T06:48:20;50.97;;;17.03;;
11761;SDS011;5938;47.098;15.474;2024-03-06T06:52:24;48.43;;;18.47;;
11761;SDS011;5938;47.098;15.474;2024-03-06T06:56:29;48.37;;;18.37;;
11761;SDS011;5938;47.098;15.474;2024-03-06T07:00:34;51.30;;;18.93;;
11761;SDS011;5938;47.098;15.474;2024-03-06T07:04:40;52.83;;;18.20;;
11761;SDS011;5938;47.098;15.474;2024-03-06T07:08:43;52.13;;;19.90;;
11761;SDS011;5938;47.098;15.474;2024-03-06T07:12:47;51.30;;;19.80;;
11761;SDS011;5938;47.098;15.474;2024-03-06T07:16:50;51.50;;;18.13;;
11761;SDS011;5938;47.098;15.474;2024-03-06T07:20:55;50.07;;;18.27;;
11761;SDS011;5938;47.098;15.474;2024-03-06T07:24:59;53.60;;;17.37;;
11761;SDS011;5938;47.098;15.474;2024-03-06T07:29:02;48.47;;;15.03;;
11761;SDS011;5938;47.098;15.474;2024-03-06T07:33:06;49.53;;;16.40;;
11761;SDS011;5938;47.098;15.474;2024-03-06T07:37:11;54.60;;;17.73;;
11761;SDS011;5938;47.098;15.474;2024-03-06T07:41:16;48.47;;;15.20;;
11761;SDS011;5938;47.098;15.474;2024-03-06T07:45:22;45.43;;;15.03;;
11761;SDS011;5938;47.098;15.474;2024-03-06T07:49:25;43.93;;;15.50;;
11761;SDS011;5938;47.098;15.474;2024-03-06T07:53:30;46.10;;;14.73;;
11761;SDS011;5938;47.098;15.474;2024-03-06T07:57:33;46.10;;;14.40;;
11761;SDS011;5938;47.098;15.474;2024-03-06T08:01:37;42.20;;;13.33;;
11761;SDS011;5938;47.098;15.474;2024-03-06T08:05:40;48.80;;;15.73;;
11761;SDS011;5938;47.098;15.474;2024-03-06T08:09:46;45.00;;;15.50;;
11761;SDS011;5938;47.098;15.474;2024-03-06T08:13:49;42.67;;;15.13;;
11761;SDS011;5938;47.098;15.474;2024-03-06T08:17:53;44.30;;;14.40;;
11761;SDS011;5938;47.098;15.474;2024-03-06T08:21:56;48.70;;;16.03;;
11761;SDS011;5938;47.098;15.474;2024-03-06T08:26:01;46.33;;;15.33;;
11761;SDS011;5938;47.098;15.474;2024-03-06T08:30:05;43.13;;;13.57;;
11761;SDS011;5938;47.098;15.474;2024-03-06T08:34:09;47.30;;;14.70;;
11761;SDS011;5938;47.098;15.474;2024-03-06T08:38:13;42.30;;;14.30;;
11761;SDS011;5938;47.098;15.474;2024-03-06T08:42:17;47.50;;;16.50;;
11761;SDS011;5938;47.098;15.474;2024-03-06T08:46:21;49.53;;;15.10;;
11761;SDS011;5938;47.098;15.474;2024-03-06T08:50:25;47.47;;;16.40;;
11761;SDS011;5938;47.098;15.474;2024-03-06T08:54:28;53.00;;;16.40;;
11761;SDS011;5938;47.098;15.474;2024-03-06T08:58:35;44.57;;;16.07;;
11761;SDS011;5938;47.098;15.474;2024-03-06T09:02:38;45.13;;;15.90;;
11761;SDS011;5938;47.098;15.474;2024-03-06T09:06:43;49.73;;;18.70;;
11761;SDS011;5938;47.098;15.474;2024-03-06T09:10:46;56.77;;;22.60;;
11761;SDS011;5938;47.098;15.474;2024-03-06T09:14:51;54.87;;;21.90;;
11761;SDS011;5938;47.098;15.474;2024-03-06T09:18:55;56.70;;;22.70;;
11761;SDS011;5938;47.098;15.474;2024-03-06T09:22:58;54.23;;;21.63;;
11761;SDS011;5938;47.098;15.474;2024-03-06T09:27:02;58.37;;;24.03;;
11761;SDS011;5938;47.098;15.474;2024-03-06T09:31:07;57.23;;;22.90;;
11761;SDS011;5938;47.098;15.474;2024-03-06T09:35:10;54.83;;;24.10;;
11761;SDS011;5938;47.098;15.474;2024-03-06T09:39:14;55.10;;;21.57;;
11761;SDS011;5938;47.098;15.474;2024-03-06T09:43:19;54.70;;;21.20;;
11761;SDS011;5938;47.098;15.474;2024-03-06T09:47:24;59.73;;;20.87;;
11761;SDS011;5938;47.098;15.474;2024-03-06T09:51:34;61.87;;;23.30;;
11761;SDS011;5938;47.098;15.474;2024-03-06T10:01:03;65.73;;;24.07;;
11761;SDS011;5938;47.098;15.474;2024-03-06T10:05:21;55.77;;;23.63;;
11761;SDS011;5938;47.098;15.474;2024-03-06T10:09:26;52.97;;;22.60;;
11761;SDS011;5938;47.098;15.474;2024-03-06T10:13:32;53.97;;;22.20;;
11761;SDS011;5938;47.098;15.474;2024-03-06T10:17:35;55.20;;;21.97;;
11761;SDS011;5938;47.098;15.474;2024-03-06T10:21:40;56.73;;;21.27;;
11761;SDS011;5938;47.098;15.474;2024-03-06T10:25:46;56.77;;;23.23;;
11761;SDS011;5938;47.098;15.474;2024-03-06T10:30:03;57.90;;;24.17;;
11761;SDS011;5938;47.098;15.474;2024-03-06T10:34:12;55.40;;;22.07;;
11761;SDS011;5938;47.098;15.474;2024-03-06T10:38:18;52.03;;;22.33;;
11761;SDS011;5938;47.098;15.474;2024-03-06T10:42:23;52.80;;;20.90;;
11761;SDS011;5938;47.098;15.474;2024-03-06T10:46:32;55.93;;;22.20;;
11761;SDS011;5938;47.098;15.474;2024-03-06T10:50:39;53.70;;;23.27;;
11761;SDS011;5938;47.098;15.474;2024-03-06T10:54:46;53.53;;;23.50;;
11761;SDS011;5938;47.098;15.474;2024-03-06T10:58:52;51.33;;;20.93;;
11761;SDS011;5938;47.098;15.474;2024-03-06T11:03:00;55.33;;;23.50;;
11761;SDS011;5938;47.098;15.474;2024-03-06T11:07:09;55.67;;;23.37;;
11761;SDS011;5938;47.098;15.474;2024-03-06T11:11:20;50.47;;;21.03;;
11761;SDS011;5938;47.098;15.474;2024-03-06T11:15:25;57.83;;;23.40;;
11761;SDS011;5938;47.098;15.474;2024-03-06T11:19:29;49.63;;;22.40;;
11761;SDS011;5938;47.098;15.474;2024-03-06T11:23:34;53.60;;;23.50;;
11761;SDS011;5938;47.098;15.474;2024-03-06T11:32:16;70.50;;;26.97;;
11761;SDS011;5938;47.098;15.474;2024-03-06T11:36:20;54.37;;;23.30;;
11761;SDS011;5938;47.098;15.474;2024-03-06T11:40:27;61.20;;;24.93;;
11761;SDS011;5938;47.098;15.474;2024-03-06T11:44:35;55.30;;;25.47;;
11761;SDS011;5938;47.098;15.474;2024-03-06T11:48:44;61.90;;;22.27;;
11761;SDS011;5938;47.098;15.474;2024-03-06T11:52:55;57.27;;;25.40;;
11761;SDS011;5938;47.098;15.474;2024-03-06T11:56:59;56.20;;;23.80;;
11761;SDS011;5938;47.098;15.474;2024-03-06T12:01:05;57.70;;;24.87;;
11761;SDS011;5938;47.098;15.474;2024-03-06T12:05:12;55.00;;;25.10;;
11761;SDS011;5938;47.098;15.474;2024-03-06T12:20:33;49.97;;;22.20;;
11761;SDS011;5938;47.098;15.474;2024-03-06T12:24:37;64.20;;;25.47;;
11761;SDS011;5938;47.098;15.474;2024-03-06T12:28:41;49.17;;;22.50;;
11761;SDS011;5938;47.098;15.474;2024-03-06T12:33:32;51.47;;;22.77;;
11761;SDS011;5938;47.098;15.474;2024-03-06T12:43:19;48.03;;;23.80;;
11761;SDS011;5938;47.098;15.474;2024-03-06T12:47:22;45.37;;;24.87;;
11761;SDS011;5938;47.098;15.474;2024-03-06T12:52:27;44.03;;;22.40;;
11761;SDS011;5938;47.098;15.474;2024-03-06T13:02:01;46.07;;;20.87;;
11761;SDS011;5938;47.098;15.474;2024-03-06T13:06:05;40.27;;;20.13;;
11761;SDS011;5938;47.098;15.474;2024-03-06T13:18:02;41.43;;;19.30;;
11761;SDS011;5938;47.098;15.474;2024-03-06T13:36:35;45.73;;;19.43;;
11761;SDS011;5938;47.098;15.474;2024-03-06T13:40:39;45.10;;;21.17;;
11761;SDS011;5938;47.098;15.474;2024-03-06T13:44:42;50.40;;;21.97;;
11761;SDS011;5938;47.098;15.474;2024-03-06T13:48:46;47.60;;;20.90;;
11761;SDS011;5938;47.098;15.474;2024-03-06T13:52:51;49.40;;;23.03;;
11761;SDS011;5938;47.098;15.474;2024-03-06T13:56:54;46.87;;;22.70;;
11761;SDS011;5938;47.098;15.474;2024-03-06T14:01:02;44.30;;;20.23;;
11761;SDS011;5938;47.098;15.474;2024-03-06T14:05:07;52.60;;;21.63;;
11761;SDS011;5938;47.098;15.474;2024-03-06T14:09:11;50.93;;;22.00;;
11761;SDS011;5938;47.098;15.474;2024-03-06T14:18:04;45.00;;;19.60;;
11761;SDS011;5938;47.098;15.474;2024-03-06T14:22:10;47.63;;;21.50;;
11761;SDS011;5938;47.098;15.474;2024-03-06T14:26:15;46.80;;;21.97;;
11761;SDS011;5938;47.098;15.474;2024-03-06T14:30:18;54.23;;;23.07;;
11761;SDS011;5938;47.098;15.474;2024-03-06T14:34:22;48.97;;;20.40;;
11761;SDS011;5938;47.098;15.474;2024-03-06T14:38:26;45.80;;;21.00;;
11761;SDS011;5938;47.098;15.474;2024-03-06T14:42:31;48.60;;;20.37;;
11761;SDS011;5938;47.098;15.474;2024-03-06T14:46:39;50.30;;;21.97;;
11761;SDS011;5938;47.098;15.474;2024-03-06T14:50:46;53.80;;;23.00;;
11761;SDS011;5938;47.098;15.474;2024-03-06T14:54:50;48.57;;;20.53;;
11761;SDS011;5938;47.098;15.474;2024-03-06T14:58:55;45.33;;;19.93;;
11761;SDS011;5938;47.098;15.474;2024-03-06T15:02:59;48.77;;;19.23;;
11761;SDS011;5938;47.098;15.474;2024-03-06T15:07:03;46.43;;;19.37;;
11761;SDS011;5938;47.098;15.474;2024-03-06T15:11:07;46.67;;;18.90;;
11761;SDS011;5938;47.098;15.474;2024-03-06T15:15:12;47.33;;;18.67;;
11761;SDS011;5938;47.098;15.474;2024-03-06T15:24:16;38.30;;;15.20;;
11761;SDS011;5938;47.098;15.474;2024-03-06T15:28:21;46.93;;;17.70;;
11761;SDS011;5938;47.098;15.474;2024-03-06T15:32:26;45.13;;;16.57;;
11761;SDS011;5938;47.098;15.474;2024-03-06T15:36:30;48.37;;;17.37;;
11761;SDS011;5938;47.098;15.474;2024-03-06T15:40:33;44.20;;;15.90;;
11761;SDS011;5938;47.098;15.474;2024-03-06T15:44:37;45.37;;;16.10;;
11761;SDS011;5938;47.098;15.474;2024-03-06T15:48:42;48.10;;;16.87;;
11761;SDS011;5938;47.098;15.474;2024-03-06T15:52:45;49.80;;;17.77;;
11761;SDS011;5938;47.098;15.474;2024-03-06T15:56:49;49.00;;;15.67;;
11761;SDS011;5938;47.098;15.474;2024-03-06T16:00:52;45.60;;;15.17;;
11761;SDS011;5938;47.098;15.474;2024-03-06T16:05:03;44.07;;;15.70;;
11761;SDS011;5938;47.098;15.474;2024-03-06T16:09:07;54.10;;;18.40;;
11761;SDS011;5938;47.098;15.474;2024-03-06T16:13:16;52.60;;;20.40;;
11761;SDS011;5938;47.098;15.474;2024-03-06T16:17:19;56.03;;;21.10;;
11761;SDS011;5938;47.098;15.474;2024-03-06T16:21:24;56.63;;;20.70;;
11761;SDS011;5938;47.098;15.474;2024-03-06T16:25:27;53.33;;;21.50;;
11761;SDS011;5938;47.098;15.474;2024-03-06T16:29:31;55.63;;;19.77;;
11761;SDS011;5938;47.098;15.474;2024-03-06T16:33:34;50.60;;;20.03;;
11761;SDS011;5938;47.098;15.474;2024-03-06T16:37:39;50.67;;;18.33;;
11761;SDS011;5938;47.098;15.474;2024-03-06T16:41:43;58.13;;;20.40;;
11761;SDS011;5938;47.098;15.474;2024-03-06T16:45:46;52.63;;;19.37;;
11761;SDS011;5938;47.098;15.474;2024-03-06T16:49:50;51.83;;;20.80;;
11761;SDS011;5938;47.098;15.474;2024-03-06T16:53:55;52.67;;;18.57;;
11761;SDS011;5938;47.098;15.474;2024-03-06T16:58:01;55.40;;;20.40;;
11761;SDS011;5938;47.098;15.474;2024-03-06T17:02:04;51.27;;;17.97;;
11761;SDS011;5938;47.098;15.474;2024-03-06T17:06:08;49.57;;;19.80;;
11761;SDS011;5938;47.098;15.474;2024-03-06T17:10:13;50.73;;;19.10;;
11761;SDS011;5938;47.098;15.474;2024-03-06T17:14:17;52.90;;;19.97;;
11761;SDS011;5938;47.098;15.474;2024-03-06T17:18:21;47.37;;;18.07;;
11761;SDS011;5938;47.098;15.474;2024-03-06T17:22:25;47.07;;;18.03;;
11761;SDS011;5938;47.098;15.474;2024-03-06T17:26:34;45.37;;;17.07;;
11761;SDS011;5938;47.098;15.474;2024-03-06T17:30:40;44.17;;;16.17;;
11761;SDS011;5938;47.098;15.474;2024-03-06T17:34:44;48.40;;;15.10;;
11761;SDS011;5938;47.098;15.474;2024-03-06T17:38:48;48.00;;;15.10;;
11761;SDS011;5938;47.098;15.474;2024-03-06T17:42:54;44.17;;;15.50;;
11761;SDS011;5938;47.098;15.474;2024-03-06T17:46:58;42.20;;;13.80;;
11761;SDS011;5938;47.098;15.474;2024-03-06T17:51:01;47.10;;;13.53;;
11761;SDS011;5938;47.098;15.474;2024-03-06T17:55:05;47.13;;;13.77;;
11761;SDS011;5938;47.098;15.474;2024-03-06T17:59:11;43.40;;;13.47;;
11761;SDS011;5938;47.098;15.474;2024-03-06T18:03:15;41.63;;;13.87;;
11761;SDS011;5938;47.098;15.474;2024-03-06T18:07:20;48.00;;;15.10;;
11761;SDS011;5938;47.098;15.474;2024-03-06T18:11:23;44.40;;;13.37;;
11761;SDS011;5938;47.098;15.474;2024-03-06T18:15:28;45.37;;;15.00;;
11761;SDS011;5938;47.098;15.474;2024-03-06T18:19:36;40.20;;;12.30;;
11761;SDS011;5938;47.098;15.474;2024-03-06T18:23:40;43.63;;;14.33;;
11761;SDS011;5938;47.098;15.474;2024-03-06T18:27:44;46.10;;;13.17;;
11761;SDS011;5938;47.098;15.474;2024-03-06T18:48:27;47.30;;;14.63;;
11761;SDS011;5938;47.098;15.474;2024-03-06T18:52:33;44.00;;;13.57;;
11761;SDS011;5938;47.098;15.474;2024-03-06T18:56:37;48.40;;;14.40;;
11761;SDS011;5938;47.098;15.474;2024-03-06T19:00:42;45.20;;;14.57;;
11761;SDS011;5938;47.098;15.474;2024-03-06T19:04:48;46.30;;;14.40;;
11761;SDS011;5938;47.098;15.474;2024-03-06T19:08:52;66.23;;;20.60;;
11761;SDS011;5938;47.098;15.474;2024-03-06T19:12:56;49.57;;;15.17;;
11761;SDS011;5938;47.098;15.474;2024-03-06T19:17:00;47.93;;;15.03;;
11761;SDS011;5938;47.098;15.474;2024-03-06T19:21:06;55.90;;;17.30;;
11761;SDS011;5938;47.098;15.474;2024-03-06T19:25:10;50.60;;;13.77;;
11761;SDS011;5938;47.098;15.474;2024-03-06T19:29:17;48.20;;;13.20;;
11761;SDS011;5938;47.098;15.474;2024-03-06T19:33:22;45.47;;;12.90;;
11761;SDS011;5938;47.098;15.474;2024-03-06T19:37:27;48.07;;;13.73;;
11761;SDS011;5938;47.098;15.474;2024-03-06T19:41:34;48.13;;;14.70;;
11761;SDS011;5938;47.098;15.474;2024-03-06T19:45:38;42.60;;;11.67;;
11761;SDS011;5938;47.098;15.474;2024-03-06T19:49:46;46.30;;;12.77;;
11761;SDS011;5938;47.098;15.474;2024-03-06T19:53:52;45.30;;;11.90;;
11761;SDS011;5938;47.098;15.474;2024-03-06T19:58:00;45.13;;;12.20;;
11761;SDS011;5938;47.098;15.474;2024-03-06T20:02:07;45.30;;;11.60;;
11761;SDS011;5938;47.098;15.474;2024-03-06T20:06:13;49.13;;;14.60;;
11761;SDS011;5938;47.098;15.474;2024-03-06T20:10:20;50.80;;;14.40;;
11761;SDS011;5938;47.098;15.474;2024-03-06T20:14:27;51.00;;;13.77;;
11761;SDS011;5938;47.098;15.474;2024-03-06T20:18:34;47.37;;;14.90;;
11761;SDS011;5938;47.098;15.474;2024-03-06T20:22:43;48.93;;;15.00;;
11761;SDS011;5938;47.098;15.474;2024-03-06T20:26:50;53.13;;;14.50;;
11761;SDS011;5938;47.098;15.474;2024-03-06T20:30:54;49.50;;;14.73;;
11761;SDS011;5938;47.098;15.474;2024-03-06T20:34:58;47.27;;;15.70;;
11761;SDS011;5938;47.098;15.474;2024-03-06T20:39:02;49.47;;;15.20;;
11761;SDS011;5938;47.098;15.474;2024-03-06T20:48:00;50.10;;;14.47;;
11761;SDS011;5938;47.098;15.474;2024-03-06T20:52:04;52.00;;;15.03;;
11761;SDS011;5938;47.098;15.474;2024-03-06T20:56:09;50.37;;;15.10;;
11761;SDS011;5938;47.098;15.474;2024-03-06T21:00:14;48.20;;;16.27;;
11761;SDS011;5938;47.098;15.474;2024-03-06T21:04:21;48.97;;;13.47;;
11761;SDS011;5938;47.098;15.474;2024-03-06T21:08:25;51.40;;;16.60;;
11761;SDS011;5938;47.098;15.474;2024-03-06T21:12:29;57.70;;;16.07;;
11761;SDS011;5938;47.098;15.474;2024-03-06T21:16:34;51.80;;;14.17;;
11761;SDS011;5938;47.098;15.474;2024-03-06T21:20:37;52.27;;;14.93;;
11761;SDS011;5938;47.098;15.474;2024-03-06T21:24:41;44.70;;;13.30;;
11761;SDS011;5938;47.098;15.474;2024-03-06T21:28:48;48.60;;;13.60;;
11761;SDS011;5938;47.098;15.474;2024-03-06T21:32:58;51.20;;;13.40;;
11761;SDS011;5938;47.098;15.474;2024-03-06T21:37:09;46.70;;;13.80;;
11761;SDS011;5938;47.098;15.474;2024-03-06T21:41:24;46.27;;;11.90;;
11761;SDS011;5938;47.098;15.474;2024-03-06T21:45:36;46.17;;;11.57;;
11761;SDS011;5938;47.098;15.474;2024-03-06T21:49:41;44.70;;;12.53;;
11761;SDS011;5938;47.098;15.474;2024-03-06T21:53:56;42.90;;;12.03;;
11761;SDS011;5938;47.098;15.474;2024-03-06T21:58:03;46.87;;;12.63;;
11761;SDS011;5938;47.098;15.474;2024-03-06T22:02:08;49.50;;;12.73;;
11761;SDS011;5938;47.098;15.474;2024-03-06T22:06:15;44.47;;;12.53;;
11761;SDS011;5938;47.098;15.474;2024-03-06T22:10:23;47.60;;;14.40;;
11761;SDS011;5938;47.098;15.474;2024-03-06T22:14:27;45.30;;;15.80;;
11761;SDS011;5938;47.098;15.474;2024-03-06T22:18:31;47.17;;;13.87;;
11761;SDS011;5938;47.098;15.474;2024-03-06T22:22:36;43.57;;;11.27;;
11761;SDS011;5938;47.098;15.474;2024-03-06T22:26:40;44.87;;;11.60;;
11761;SDS011;5938;47.098;15.474;2024-03-06T22:30:43;45.03;;;10.60;;
11761;SDS011;5938;47.098;15.474;2024-03-06T22:34:47;45.43;;;11.03;;
11761;SDS011;5938;47.098;15.474;2024-03-06T22:38:51;43.47;;;9.93;;
11761;SDS011;5938;47.098;15.474;2024-03-06T22:42:55;44.80;;;9.87;;
11761;SDS011;5938;47.098;15.474;2024-03-06T22:46:59;47.10;;;11.33;;
11761;SDS011;5938;47.098;15.474;2024-03-06T22:51:02;42.90;;;10.20;;
11761;SDS011;5938;47.098;15.474;2024-03-06T22:55:08;50.73;;;11.93;;
11761;SDS011;5938;47.098;15.474;2024-03-06T22:59:11;47.27;;;13.23;;
11761;SDS011;5938;47.098;15.474;2024-03-06T23:03:16;45.93;;;9.83;;
11761;SDS011;5938;47.098;15.474;2024-03-06T23:07:20;46.43;;;10.97;;
11761;SDS011;5938;47.098;15.474;2024-03-06T23:11:25;51.70;;;11.37;;
11761;SDS011;5938;47.098;15.474;2024-03-06T23:15:31;44.87;;;10.20;;
11761;SDS011;5938;47.098;15.474;2024-03-06T23:19:34;42.77;;;10.90;;
11761;SDS011;5938;47.098;15.474;2024-03-06T23:23:37;48.17;;;11.60;;
11761;SDS011;5938;47.098;15.474;2024-03-06T23:27:43;49.13;;;12.70;;
11761;SDS011;5938;47.098;15.474;2024-03-06T23:31:47;43.23;;;10.00;;
11761;SDS011;5938;47.098;15.474;2024-03-06T23:35:50;46.57;;;12.53;;
11761;SDS011;5938;47.098;15.474;2024-03-06T23:39:54;48.10;;;11.87;;
11761;SDS011;5938;47.098;15.474;2024-03-06T23:43:59;45.70;;;10.03;;
11761;SDS011;5938;47.098;15.474;2024-03-06T23:48:03;44.50;;;11.30;;
11761;SDS011;5938;47.098;15.474;2024-03-06T23:52:08;51.57;;;10.77;;
11761;SDS011;5938;47.098;15.474;2024-03-06T23:56:12;47.17;;;11.20;;
